Etusivu
METAR-TAF:

METAR-TAF

Lentoasemat :

Jayapura, Indonesia

Leveyspiiri: 02-34-37S, Pituuspiiri: 140-30-58E, korkeus merenpinnasta: 88 m

Tämänhetkinen sää

Tämä raportti tehtiin 24 minuuttia sitten, kello 02.00 UTC
Tuuli 4 kn eri suunnista
Lämpötila 33°C
Kosteus 59%
Ilmanpaine 1008 hPa
Näkyvyys 10 km tai enemmän
Muutamia pilviä 1300 ft:n korkeudessa

METAR: WAJJ 250200Z VRB04KT 9999 FEW013 33/24 Q1008 NOSIG

Aika: 09:24 (02:24 UTC)


TAF: puuttuu

Säähavainnot ja -ennusteet yli 4000 lentoasemalta (METAR- ja TAF-raportit).

Käytössä olevat sääasemat on merkitty karttaan keltaisilla ja punaisilla pisteillä.

Aseta hiiri pisteen päälle nähdäksesi sääaseman nimen.

Klikkaa sitten nähdäksesi säähavainnot ja -ennusteet.

Kartan vaihtaminen: klikkaa mustalla rastilla varustettuja vihreitä pisteitä, niin voit zoomata sisään; viivalla varustettua vihreää pistettä, niin voit zoomata ulos tai vihreitä nuolia, niin pääset viereisille kartoille.


METAR-TAF: